sensor_id;sensor_type;location;lat;lon;timestamp;temperature;humidity
55083;DHT22;40978;52.850;6.506;2023-04-21T00:01:30;9.10;99.90
55083;DHT22;40978;52.850;6.506;2023-04-21T00:03:56;9.20;99.90
55083;DHT22;40978;52.850;6.506;2023-04-21T00:06:22;9.10;99.90
55083;DHT22;40978;52.850;6.506;2023-04-21T00:08:48;9.10;99.90
55083;DHT22;40978;52.850;6.506;2023-04-21T00:11:14;9.20;99.90
55083;DHT22;40978;52.850;6.506;2023-04-21T00:13:40;9.20;99.90
55083;DHT22;40978;52.850;6.506;2023-04-21T00:16:06;9.20;99.90
55083;DHT22;40978;52.850;6.506;2023-04-21T00:18:32;9.20;99.90
55083;DHT22;40978;52.850;6.506;2023-04-21T00:20:58;9.20;99.90
55083;DHT22;40978;52.850;6.506;2023-04-21T00:23:24;9.20;99.90
55083;DHT22;40978;52.850;6.506;2023-04-21T00:25:49;9.20;99.90
55083;DHT22;40978;52.850;6.506;2023-04-21T00:28:16;9.20;99.90
55083;DHT22;40978;52.850;6.506;2023-04-21T00:30:42;9.20;99.90
55083;DHT22;40978;52.850;6.506;2023-04-21T00:33:08;9.20;99.90
55083;DHT22;40978;52.850;6.506;2023-04-21T00:35:33;9.20;99.90
55083;DHT22;40978;52.850;6.506;2023-04-21T00:37:59;9.10;99.90
55083;DHT22;40978;52.850;6.506;2023-04-21T00:40:25;9.10;99.90
55083;DHT22;40978;52.850;6.506;2023-04-21T00:42:51;9.10;99.90
55083;DHT22;40978;52.850;6.506;2023-04-21T00:45:17;9.10;99.90
55083;DHT22;40978;52.850;6.506;2023-04-21T00:47:43;9.00;99.90
55083;DHT22;40978;52.850;6.506;2023-04-21T00:50:10;9.10;99.90
55083;DHT22;40978;52.850;6.506;2023-04-21T00:52:39;9.00;99.90
55083;DHT22;40978;52.850;6.506;2023-04-21T00:55:05;9.00;99.90
55083;DHT22;40978;52.850;6.506;2023-04-21T00:57:32;9.00;99.90
55083;DHT22;40978;52.850;6.506;2023-04-21T01:00:00;9.00;99.90
55083;DHT22;40978;52.850;6.506;2023-04-21T01:02:26;9.00;99.90
55083;DHT22;40978;52.850;6.506;2023-04-21T01:04:52;9.00;99.90
55083;DHT22;40978;52.850;6.506;2023-04-21T01:07:18;8.90;99.90
55083;DHT22;40978;52.850;6.506;2023-04-21T01:09:44;8.90;99.90
55083;DHT22;40978;52.850;6.506;2023-04-21T01:12:10;8.90;99.90
55083;DHT22;40978;52.850;6.506;2023-04-21T01:14:38;8.90;99.90
55083;DHT22;40978;52.850;6.506;2023-04-21T01:17:04;8.90;99.90
55083;DHT22;40978;52.850;6.506;2023-04-21T01:19:33;8.90;99.90
55083;DHT22;40978;52.850;6.506;2023-04-21T01:22:01;8.90;99.90
55083;DHT22;40978;52.850;6.506;2023-04-21T01:24:42;8.90;99.90
55083;DHT22;40978;52.850;6.506;2023-04-21T01:27:13;8.80;99.90
55083;DHT22;40978;52.850;6.506;2023-04-21T01:29:40;8.90;99.90
55083;DHT22;40978;52.850;6.506;2023-04-21T01:32:08;8.90;99.90
55083;DHT22;40978;52.850;6.506;2023-04-21T01:34:35;8.90;99.90
55083;DHT22;40978;52.850;6.506;2023-04-21T01:37:01;8.90;99.90
55083;DHT22;40978;52.850;6.506;2023-04-21T01:39:27;8.80;99.90
55083;DHT22;40978;52.850;6.506;2023-04-21T01:41:53;8.80;99.90
55083;DHT22;40978;52.850;6.506;2023-04-21T01:44:23;8.80;99.90
55083;DHT22;40978;52.850;6.506;2023-04-21T01:46:49;8.80;99.90
55083;DHT22;40978;52.850;6.506;2023-04-21T01:49:15;8.70;99.90
55083;DHT22;40978;52.850;6.506;2023-04-21T01:51:40;8.80;99.90
55083;DHT22;40978;52.850;6.506;2023-04-21T01:54:06;8.70;99.90
55083;DHT22;40978;52.850;6.506;2023-04-21T01:56:32;8.70;99.90
55083;DHT22;40978;52.850;6.506;2023-04-21T01:58:57;8.70;99.90
55083;DHT22;40978;52.850;6.506;2023-04-21T02:01:23;8.70;99.90
55083;DHT22;40978;52.850;6.506;2023-04-21T02:03:49;8.70;99.90
55083;DHT22;40978;52.850;6.506;2023-04-21T02:06:14;8.70;99.90
55083;DHT22;40978;52.850;6.506;2023-04-21T02:08:42;8.70;99.90
55083;DHT22;40978;52.850;6.506;2023-04-21T02:11:08;8.70;99.90
55083;DHT22;40978;52.850;6.506;2023-04-21T02:13:33;8.70;99.90
55083;DHT22;40978;52.850;6.506;2023-04-21T02:15:59;8.80;99.90
55083;DHT22;40978;52.850;6.506;2023-04-21T02:18:25;8.70;99.90
55083;DHT22;40978;52.850;6.506;2023-04-21T02:20:50;8.70;99.90
55083;DHT22;40978;52.850;6.506;2023-04-21T02:23:16;8.80;99.90
55083;DHT22;40978;52.850;6.506;2023-04-21T02:25:42;8.80;99.90
55083;DHT22;40978;52.850;6.506;2023-04-21T02:28:07;8.70;99.90
55083;DHT22;40978;52.850;6.506;2023-04-21T02:30:33;8.80;99.90
55083;DHT22;40978;52.850;6.506;2023-04-21T02:32:59;8.70;99.90
55083;DHT22;40978;52.850;6.506;2023-04-21T02:35:25;8.80;99.90
55083;DHT22;40978;52.850;6.506;2023-04-21T02:37:51;8.80;99.90
55083;DHT22;40978;52.850;6.506;2023-04-21T02:40:17;8.80;99.90
55083;DHT22;40978;52.850;6.506;2023-04-21T02:42:43;8.80;99.90
55083;DHT22;40978;52.850;6.506;2023-04-21T02:45:09;8.70;99.90
55083;DHT22;40978;52.850;6.506;2023-04-21T02:47:35;8.70;99.90
55083;DHT22;40978;52.850;6.506;2023-04-21T02:50:00;8.70;99.90
55083;DHT22;40978;52.850;6.506;2023-04-21T02:52:26;8.70;99.90
55083;DHT22;40978;52.850;6.506;2023-04-21T02:54:52;8.70;99.90
55083;DHT22;40978;52.850;6.506;2023-04-21T02:57:18;8.70;99.90
55083;DHT22;40978;52.850;6.506;2023-04-21T02:59:43;8.70;99.90
55083;DHT22;40978;52.850;6.506;2023-04-21T03:02:09;8.70;99.90
55083;DHT22;40978;52.850;6.506;2023-04-21T03:04:35;8.70;99.90
55083;DHT22;40978;52.850;6.506;2023-04-21T03:07:00;8.70;99.90
55083;DHT22;40978;52.850;6.506;2023-04-21T03:09:26;8.70;99.90
55083;DHT22;40978;52.850;6.506;2023-04-21T03:11:52;8.70;99.90
55083;DHT22;40978;52.850;6.506;2023-04-21T03:14:17;8.70;99.90
55083;DHT22;40978;52.850;6.506;2023-04-21T03:16:43;8.80;99.90
55083;DHT22;40978;52.850;6.506;2023-04-21T03:19:09;8.70;99.90
55083;DHT22;40978;52.850;6.506;2023-04-21T03:21:38;8.70;99.90
55083;DHT22;40978;52.850;6.506;2023-04-21T03:24:05;8.70;99.90
55083;DHT22;40978;52.850;6.506;2023-04-21T03:26:31;8.70;99.90
55083;DHT22;40978;52.850;6.506;2023-04-21T03:28:56;8.70;99.90
55083;DHT22;40978;52.850;6.506;2023-04-21T03:31:22;8.70;99.90
55083;DHT22;40978;52.850;6.506;2023-04-21T03:33:48;8.70;99.90
55083;DHT22;40978;52.850;6.506;2023-04-21T03:36:13;8.70;99.90
55083;DHT22;40978;52.850;6.506;2023-04-21T03:38:39;8.80;99.90
55083;DHT22;40978;52.850;6.506;2023-04-21T03:41:05;8.80;99.90
55083;DHT22;40978;52.850;6.506;2023-04-21T03:43:31;8.90;99.90
55083;DHT22;40978;52.850;6.506;2023-04-21T03:45:56;8.80;99.90
55083;DHT22;40978;52.850;6.506;2023-04-21T03:48:22;8.90;99.90
55083;DHT22;40978;52.850;6.506;2023-04-21T03:50:49;8.90;99.90
55083;DHT22;40978;52.850;6.506;2023-04-21T03:53:17;8.90;99.90
55083;DHT22;40978;52.850;6.506;2023-04-21T03:55:43;8.90;99.90
55083;DHT22;40978;52.850;6.506;2023-04-21T03:58:16;9.00;99.90
55083;DHT22;40978;52.850;6.506;2023-04-21T04:00:49;9.00;99.90
55083;DHT22;40978;52.850;6.506;2023-04-21T04:03:22;8.90;99.90
55083;DHT22;40978;52.850;6.506;2023-04-21T04:05:55;8.90;99.90
55083;DHT22;40978;52.850;6.506;2023-04-21T04:08:29;9.00;99.90
55083;DHT22;40978;52.850;6.506;2023-04-21T04:11:01;8.90;99.90
55083;DHT22;40978;52.850;6.506;2023-04-21T04:13:32;8.90;99.90
55083;DHT22;40978;52.850;6.506;2023-04-21T04:15:57;8.90;99.90
55083;DHT22;40978;52.850;6.506;2023-04-21T04:18:23;8.90;99.90
55083;DHT22;40978;52.850;6.506;2023-04-21T04:20:49;8.90;99.90
55083;DHT22;40978;52.850;6.506;2023-04-21T04:23:15;8.90;99.90
55083;DHT22;40978;52.850;6.506;2023-04-21T04:25:41;8.90;99.90
55083;DHT22;40978;52.850;6.506;2023-04-21T04:28:07;8.90;99.90
55083;DHT22;40978;52.850;6.506;2023-04-21T04:30:34;8.80;99.90
55083;DHT22;40978;52.850;6.506;2023-04-21T04:33:00;8.80;99.90
55083;DHT22;40978;52.850;6.506;2023-04-21T04:35:26;8.70;99.90
55083;DHT22;40978;52.850;6.506;2023-04-21T04:37:51;8.70;99.90
55083;DHT22;40978;52.850;6.506;2023-04-21T04:40:19;8.70;99.90
55083;DHT22;40978;52.850;6.506;2023-04-21T04:42:45;8.60;99.90
55083;DHT22;40978;52.850;6.506;2023-04-21T04:45:13;8.60;99.90
55083;DHT22;40978;52.850;6.506;2023-04-21T04:47:41;8.60;99.90
55083;DHT22;40978;52.850;6.506;2023-04-21T04:50:07;8.50;99.90
55083;DHT22;40978;52.850;6.506;2023-04-21T04:52:33;8.50;99.90
55083;DHT22;40978;52.850;6.506;2023-04-21T04:54:59;8.50;99.90
55083;DHT22;40978;52.850;6.506;2023-04-21T04:57:24;8.50;99.90
55083;DHT22;40978;52.850;6.506;2023-04-21T04:59:54;8.50;99.90
55083;DHT22;40978;52.850;6.506;2023-04-21T05:02:20;8.50;99.90
55083;DHT22;40978;52.850;6.506;2023-04-21T05:04:50;8.50;99.90
55083;DHT22;40978;52.850;6.506;2023-04-21T05:07:16;8.50;99.90
55083;DHT22;40978;52.850;6.506;2023-04-21T05:09:42;8.60;99.90
55083;DHT22;40978;52.850;6.506;2023-04-21T05:12:08;8.60;99.90
55083;DHT22;40978;52.850;6.506;2023-04-21T05:14:33;8.60;99.90
55083;DHT22;40978;52.850;6.506;2023-04-21T05:16:59;8.70;99.90
55083;DHT22;40978;52.850;6.506;2023-04-21T05:19:25;8.70;99.90
55083;DHT22;40978;52.850;6.506;2023-04-21T05:21:50;8.70;99.90
55083;DHT22;40978;52.850;6.506;2023-04-21T05:24:16;8.70;99.90
55083;DHT22;40978;52.850;6.506;2023-04-21T05:26:47;8.70;99.90
55083;DHT22;40978;52.850;6.506;2023-04-21T05:29:13;8.80;99.90
55083;DHT22;40978;52.850;6.506;2023-04-21T05:31:39;8.80;99.90
55083;DHT22;40978;52.850;6.506;2023-04-21T05:34:05;8.80;99.90
55083;DHT22;40978;52.850;6.506;2023-04-21T05:36:30;8.90;99.90
55083;DHT22;40978;52.850;6.506;2023-04-21T05:38:57;9.00;99.90
55083;DHT22;40978;52.850;6.506;2023-04-21T05:41:22;9.20;99.90
55083;DHT22;40978;52.850;6.506;2023-04-21T05:43:48;9.30;99.90
55083;DHT22;40978;52.850;6.506;2023-04-21T05:46:14;9.50;99.90
55083;DHT22;40978;52.850;6.506;2023-04-21T05:48:40;9.70;99.90
55083;DHT22;40978;52.850;6.506;2023-04-21T05:51:10;9.90;99.90
55083;DHT22;40978;52.850;6.506;2023-04-21T05:53:37;10.10;99.90
55083;DHT22;40978;52.850;6.506;2023-04-21T05:56:03;10.10;99.90
55083;DHT22;40978;52.850;6.506;2023-04-21T05:58:29;10.00;99.90
55083;DHT22;40978;52.850;6.506;2023-04-21T06:00:55;9.90;99.90
55083;DHT22;40978;52.850;6.506;2023-04-21T06:03:20;9.80;99.90
55083;DHT22;40978;52.850;6.506;2023-04-21T06:05:46;9.80;99.90
55083;DHT22;40978;52.850;6.506;2023-04-21T06:08:12;9.80;99.90
55083;DHT22;40978;52.850;6.506;2023-04-21T06:10:37;9.80;99.90
55083;DHT22;40978;52.850;6.506;2023-04-21T06:13:03;9.80;99.90
55083;DHT22;40978;52.850;6.506;2023-04-21T06:15:29;9.80;99.90
55083;DHT22;40978;52.850;6.506;2023-04-21T06:17:55;9.80;99.90
55083;DHT22;40978;52.850;6.506;2023-04-21T06:20:20;9.90;99.90
55083;DHT22;40978;52.850;6.506;2023-04-21T06:22:46;10.00;99.90
55083;DHT22;40978;52.850;6.506;2023-04-21T06:25:12;10.00;99.90
55083;DHT22;40978;52.850;6.506;2023-04-21T06:27:37;10.10;99.90
55083;DHT22;40978;52.850;6.506;2023-04-21T06:30:03;10.20;99.90
55083;DHT22;40978;52.850;6.506;2023-04-21T06:32:29;10.20;99.90
55083;DHT22;40978;52.850;6.506;2023-04-21T06:34:55;10.20;99.90
55083;DHT22;40978;52.850;6.506;2023-04-21T06:37:21;10.30;99.90
55083;DHT22;40978;52.850;6.506;2023-04-21T06:39:46;10.40;99.90
55083;DHT22;40978;52.850;6.506;2023-04-21T06:42:12;10.50;99.90
55083;DHT22;40978;52.850;6.506;2023-04-21T06:44:38;10.60;99.90
55083;DHT22;40978;52.850;6.506;2023-04-21T06:47:03;10.80;99.90
55083;DHT22;40978;52.850;6.506;2023-04-21T06:49:29;11.00;99.90
55083;DHT22;40978;52.850;6.506;2023-04-21T06:51:55;11.10;99.90
55083;DHT22;40978;52.850;6.506;2023-04-21T06:54:21;11.10;99.90
55083;DHT22;40978;52.850;6.506;2023-04-21T06:56:46;11.10;99.90
55083;DHT22;40978;52.850;6.506;2023-04-21T06:59:12;11.10;99.90
55083;DHT22;40978;52.850;6.506;2023-04-21T07:01:38;11.10;99.90
55083;DHT22;40978;52.850;6.506;2023-04-21T07:04:04;11.10;99.90
55083;DHT22;40978;52.850;6.506;2023-04-21T07:06:30;11.10;99.90
55083;DHT22;40978;52.850;6.506;2023-04-21T07:08:56;11.20;99.90
55083;DHT22;40978;52.850;6.506;2023-04-21T07:11:22;11.20;99.90
55083;DHT22;40978;52.850;6.506;2023-04-21T07:13:48;11.20;99.90
55083;DHT22;40978;52.850;6.506;2023-04-21T07:16:13;11.30;99.90
55083;DHT22;40978;52.850;6.506;2023-04-21T07:18:39;11.40;99.90
55083;DHT22;40978;52.850;6.506;2023-04-21T07:21:06;11.50;99.90
55083;DHT22;40978;52.850;6.506;2023-04-21T07:23:32;11.60;99.90
55083;DHT22;40978;52.850;6.506;2023-04-21T07:25:58;11.60;99.90
55083;DHT22;40978;52.850;6.506;2023-04-21T07:28:24;11.60;99.90
55083;DHT22;40978;52.850;6.506;2023-04-21T07:30:50;11.60;99.90
55083;DHT22;40978;52.850;6.506;2023-04-21T07:33:15;11.70;99.90
55083;DHT22;40978;52.850;6.506;2023-04-21T07:35:41;11.70;99.90
55083;DHT22;40978;52.850;6.506;2023-04-21T07:38:07;11.70;99.90
55083;DHT22;40978;52.850;6.506;2023-04-21T07:40:33;11.80;99.90
55083;DHT22;40978;52.850;6.506;2023-04-21T07:42:59;11.80;99.90
55083;DHT22;40978;52.850;6.506;2023-04-21T07:45:25;11.90;99.90
55083;DHT22;40978;52.850;6.506;2023-04-21T07:47:51;11.90;99.90
55083;DHT22;40978;52.850;6.506;2023-04-21T07:50:16;12.00;99.90
55083;DHT22;40978;52.850;6.506;2023-04-21T07:52:42;12.10;99.90
55083;DHT22;40978;52.850;6.506;2023-04-21T07:55:08;12.20;99.90
55083;DHT22;40978;52.850;6.506;2023-04-21T07:57:33;12.30;99.90
55083;DHT22;40978;52.850;6.506;2023-04-21T08:00:04;12.50;99.90
55083;DHT22;40978;52.850;6.506;2023-04-21T08:02:30;12.70;99.90
55083;DHT22;40978;52.850;6.506;2023-04-21T08:04:56;12.80;99.90
55083;DHT22;40978;52.850;6.506;2023-04-21T08:07:22;12.80;99.90
55083;DHT22;40978;52.850;6.506;2023-04-21T08:09:48;12.90;99.90
55083;DHT22;40978;52.850;6.506;2023-04-21T08:12:13;13.00;99.90
55083;DHT22;40978;52.850;6.506;2023-04-21T08:14:40;13.00;99.90
55083;DHT22;40978;52.850;6.506;2023-04-21T08:17:05;12.90;99.90
55083;DHT22;40978;52.850;6.506;2023-04-21T08:19:31;13.00;99.90
55083;DHT22;40978;52.850;6.506;2023-04-21T08:21:57;13.00;99.90
55083;DHT22;40978;52.850;6.506;2023-04-21T08:24:23;13.00;99.90
55083;DHT22;40978;52.850;6.506;2023-04-21T08:26:49;13.00;99.90
55083;DHT22;40978;52.850;6.506;2023-04-21T08:29:15;13.10;99.90
55083;DHT22;40978;52.850;6.506;2023-04-21T08:31:41;13.20;99.90
55083;DHT22;40978;52.850;6.506;2023-04-21T08:34:07;13.20;99.90
55083;DHT22;40978;52.850;6.506;2023-04-21T08:36:33;13.40;99.90
55083;DHT22;40978;52.850;6.506;2023-04-21T08:38:59;13.50;99.90
55083;DHT22;40978;52.850;6.506;2023-04-21T08:41:25;13.70;99.90
55083;DHT22;40978;52.850;6.506;2023-04-21T08:43:51;13.80;99.90
55083;DHT22;40978;52.850;6.506;2023-04-21T08:46:18;13.80;99.90
55083;DHT22;40978;52.850;6.506;2023-04-21T08:48:45;13.90;99.90
55083;DHT22;40978;52.850;6.506;2023-04-21T08:51:13;13.90;99.90
55083;DHT22;40978;52.850;6.506;2023-04-21T08:53:42;14.00;99.90
55083;DHT22;40978;52.850;6.506;2023-04-21T08:56:09;14.20;99.90
55083;DHT22;40978;52.850;6.506;2023-04-21T08:58:37;14.30;99.90
55083;DHT22;40978;52.850;6.506;2023-04-21T09:01:03;14.30;99.90
55083;DHT22;40978;52.850;6.506;2023-04-21T09:03:29;14.40;99.90
55083;DHT22;40978;52.850;6.506;2023-04-21T09:05:59;14.60;99.90
55083;DHT22;40978;52.850;6.506;2023-04-21T09:08:26;14.70;99.90
55083;DHT22;40978;52.850;6.506;2023-04-21T09:10:54;14.90;99.90
55083;DHT22;40978;52.850;6.506;2023-04-21T09:13:19;15.30;99.90
55083;DHT22;40978;52.850;6.506;2023-04-21T09:15:50;15.60;99.90
55083;DHT22;40978;52.850;6.506;2023-04-21T09:18:23;15.60;99.90
55083;DHT22;40978;52.850;6.506;2023-04-21T09:21:03;15.50;99.90
55083;DHT22;40978;52.850;6.506;2023-04-21T09:23:29;15.50;99.90
55083;DHT22;40978;52.850;6.506;2023-04-21T09:25:55;15.50;99.90
55083;DHT22;40978;52.850;6.506;2023-04-21T09:28:21;15.40;99.90
55083;DHT22;40978;52.850;6.506;2023-04-21T09:30:46;15.40;99.90
55083;DHT22;40978;52.850;6.506;2023-04-21T09:33:19;15.50;99.90
55083;DHT22;40978;52.850;6.506;2023-04-21T09:35:45;15.70;99.90
55083;DHT22;40978;52.850;6.506;2023-04-21T09:38:12;15.90;99.90
55083;DHT22;40978;52.850;6.506;2023-04-21T09:40:38;16.10;99.90
55083;DHT22;40978;52.850;6.506;2023-04-21T09:43:05;16.30;99.90
55083;DHT22;40978;52.850;6.506;2023-04-21T09:45:31;16.40;99.90
55083;DHT22;40978;52.850;6.506;2023-04-21T09:47:59;16.40;99.90
55083;DHT22;40978;52.850;6.506;2023-04-21T09:50:27;16.50;99.90
55083;DHT22;40978;52.850;6.506;2023-04-21T09:52:55;16.80;99.90
55083;DHT22;40978;52.850;6.506;2023-04-21T09:55:29;17.00;99.90
55083;DHT22;40978;52.850;6.506;2023-04-21T09:57:58;17.00;99.90
55083;DHT22;40978;52.850;6.506;2023-04-21T10:00:26;17.20;99.90
55083;DHT22;40978;52.850;6.506;2023-04-21T10:02:57;17.40;99.90
55083;DHT22;40978;52.850;6.506;2023-04-21T10:05:25;18.00;99.90
55083;DHT22;40978;52.850;6.506;2023-04-21T10:07:51;18.50;99.90
55083;DHT22;40978;52.850;6.506;2023-04-21T10:10:22;18.90;99.90
55083;DHT22;40978;52.850;6.506;2023-04-21T10:12:49;19.30;99.90
55083;DHT22;40978;52.850;6.506;2023-04-21T10:15:37;19.60;99.90
55083;DHT22;40978;52.850;6.506;2023-04-21T10:18:20;19.70;99.90
55083;DHT22;40978;52.850;6.506;2023-04-21T10:21:18;19.60;99.90
55083;DHT22;40978;52.850;6.506;2023-04-21T10:23:50;19.60;99.60
55083;DHT22;40978;52.850;6.506;2023-04-21T10:26:23;19.50;99.90
55083;DHT22;40978;52.850;6.506;2023-04-21T10:31:33;19.50;99.90
55083;DHT22;40978;52.850;6.506;2023-04-21T10:36:42;20.20;98.60
55083;DHT22;40978;52.850;6.506;2023-04-21T10:39:08;20.40;99.00
55083;DHT22;40978;52.850;6.506;2023-04-21T10:41:36;20.10;97.30
55083;DHT22;40978;52.850;6.506;2023-04-21T10:54:22;18.40;98.90
55083;DHT22;40978;52.850;6.506;2023-04-21T10:56:54;18.30;98.60
55083;DHT22;40978;52.850;6.506;2023-04-21T10:59:20;18.10;99.40
55083;DHT22;40978;52.850;6.506;2023-04-21T11:01:46;18.00;99.80
55083;DHT22;40978;52.850;6.506;2023-04-21T11:04:16;17.90;99.70
55083;DHT22;40978;52.850;6.506;2023-04-21T11:06:48;17.90;99.90
55083;DHT22;40978;52.850;6.506;2023-04-21T11:09:29;17.90;99.90
55083;DHT22;40978;52.850;6.506;2023-04-21T11:12:04;17.80;99.90
55083;DHT22;40978;52.850;6.506;2023-04-21T11:14:32;17.90;99.90
55083;DHT22;40978;52.850;6.506;2023-04-21T11:16:58;18.10;99.90
55083;DHT22;40978;52.850;6.506;2023-04-21T11:19:24;18.20;99.90
55083;DHT22;40978;52.850;6.506;2023-04-21T11:21:52;18.50;99.90
55083;DHT22;40978;52.850;6.506;2023-04-21T11:24:20;18.80;99.90
55083;DHT22;40978;52.850;6.506;2023-04-21T11:26:46;19.10;99.90
55083;DHT22;40978;52.850;6.506;2023-04-21T11:29:12;19.70;99.60
55083;DHT22;40978;52.850;6.506;2023-04-21T11:31:41;20.30;99.10
55083;DHT22;40978;52.850;6.506;2023-04-21T11:34:08;20.70;96.80
55083;DHT22;40978;52.850;6.506;2023-04-21T11:36:39;20.60;95.90
55083;DHT22;40978;52.850;6.506;2023-04-21T11:39:09;20.70;95.90
55083;DHT22;40978;52.850;6.506;2023-04-21T11:41:40;20.80;96.20
55083;DHT22;40978;52.850;6.506;2023-04-21T11:44:07;21.20;95.10
55083;DHT22;40978;52.850;6.506;2023-04-21T11:46:33;21.60;94.50
55083;DHT22;40978;52.850;6.506;2023-04-21T11:49:02;22.00;92.60
55083;DHT22;40978;52.850;6.506;2023-04-21T11:54:03;21.40;90.10
55083;DHT22;40978;52.850;6.506;2023-04-21T11:56:32;20.70;90.90
55083;DHT22;40978;52.850;6.506;2023-04-21T11:58:58;20.50;90.00
55083;DHT22;40978;52.850;6.506;2023-04-21T12:01:25;20.30;91.20
55083;DHT22;40978;52.850;6.506;2023-04-21T12:03:53;20.20;91.10
55083;DHT22;40978;52.850;6.506;2023-04-21T12:06:26;20.00;90.10
55083;DHT22;40978;52.850;6.506;2023-04-21T12:09:00;20.20;91.40
55083;DHT22;40978;52.850;6.506;2023-04-21T12:11:30;20.30;90.40
55083;DHT22;40978;52.850;6.506;2023-04-21T12:13:57;20.20;90.00
55083;DHT22;40978;52.850;6.506;2023-04-21T12:16:27;20.00;90.20
55083;DHT22;40978;52.850;6.506;2023-04-21T12:18:54;19.90;89.60
55083;DHT22;40978;52.850;6.506;2023-04-21T12:21:20;20.00;90.70
55083;DHT22;40978;52.850;6.506;2023-04-21T12:23:46;20.40;90.40
55083;DHT22;40978;52.850;6.506;2023-04-21T12:26:12;20.60;90.40
55083;DHT22;40978;52.850;6.506;2023-04-21T12:28:38;20.50;89.20
55083;DHT22;40978;52.850;6.506;2023-04-21T12:31:05;20.30;89.40
55083;DHT22;40978;52.850;6.506;2023-04-21T12:33:30;20.00;90.50
55083;DHT22;40978;52.850;6.506;2023-04-21T12:35:56;19.90;90.70
55083;DHT22;40978;52.850;6.506;2023-04-21T12:38:22;19.90;90.60
55083;DHT22;40978;52.850;6.506;2023-04-21T12:40:48;19.80;90.50
55083;DHT22;40978;52.850;6.506;2023-04-21T12:43:13;19.80;89.70
55083;DHT22;40978;52.850;6.506;2023-04-21T12:45:39;19.60;90.60
55083;DHT22;40978;52.850;6.506;2023-04-21T12:48:05;19.60;90.70
55083;DHT22;40978;52.850;6.506;2023-04-21T12:50:31;19.50;90.90
55083;DHT22;40978;52.850;6.506;2023-04-21T12:52:57;19.40;91.60
55083;DHT22;40978;52.850;6.506;2023-04-21T12:55:23;19.50;91.30
55083;DHT22;40978;52.850;6.506;2023-04-21T12:57:49;19.70;91.00
55083;DHT22;40978;52.850;6.506;2023-04-21T13:00:15;20.20;91.10
55083;DHT22;40978;52.850;6.506;2023-04-21T13:02:41;20.50;88.10
55083;DHT22;40978;52.850;6.506;2023-04-21T13:05:07;20.20;87.60
55083;DHT22;40978;52.850;6.506;2023-04-21T13:07:35;20.00;86.40
55083;DHT22;40978;52.850;6.506;2023-04-21T13:10:01;19.70;85.50
55083;DHT22;40978;52.850;6.506;2023-04-21T13:12:27;19.60;86.90
55083;DHT22;40978;52.850;6.506;2023-04-21T13:14:53;19.60;87.70
55083;DHT22;40978;52.850;6.506;2023-04-21T13:17:19;19.80;89.70
55083;DHT22;40978;52.850;6.506;2023-04-21T13:19:45;19.80;88.20
55083;DHT22;40978;52.850;6.506;2023-04-21T13:22:10;19.60;86.00
55083;DHT22;40978;52.850;6.506;2023-04-21T13:24:36;19.60;88.60
55083;DHT22;40978;52.850;6.506;2023-04-21T13:27:02;19.60;85.00
55083;DHT22;40978;52.850;6.506;2023-04-21T13:29:28;19.60;84.40
55083;DHT22;40978;52.850;6.506;2023-04-21T13:31:55;19.60;84.70
55083;DHT22;40978;52.850;6.506;2023-04-21T13:34:21;19.50;86.10
55083;DHT22;40978;52.850;6.506;2023-04-21T13:36:47;19.50;84.50
55083;DHT22;40978;52.850;6.506;2023-04-21T13:39:13;19.40;85.80
55083;DHT22;40978;52.850;6.506;2023-04-21T13:41:42;19.40;85.20
55083;DHT22;40978;52.850;6.506;2023-04-21T13:44:08;19.40;85.70
55083;DHT22;40978;52.850;6.506;2023-04-21T13:46:34;19.30;85.30
55083;DHT22;40978;52.850;6.506;2023-04-21T13:49:00;19.40;84.10
55083;DHT22;40978;52.850;6.506;2023-04-21T13:51:25;19.50;81.70
55083;DHT22;40978;52.850;6.506;2023-04-21T13:53:51;19.70;79.90
55083;DHT22;40978;52.850;6.506;2023-04-21T13:56:17;19.90;78.40
55083;DHT22;40978;52.850;6.506;2023-04-21T13:58:43;20.20;77.80
55083;DHT22;40978;52.850;6.506;2023-04-21T14:01:08;20.10;78.40
55083;DHT22;40978;52.850;6.506;2023-04-21T14:03:34;20.00;77.40
55083;DHT22;40978;52.850;6.506;2023-04-21T14:06:00;19.90;78.80
55083;DHT22;40978;52.850;6.506;2023-04-21T14:08:26;19.80;77.40
55083;DHT22;40978;52.850;6.506;2023-04-21T14:10:52;19.80;77.10
55083;DHT22;40978;52.850;6.506;2023-04-21T14:13:17;19.70;76.20
55083;DHT22;40978;52.850;6.506;2023-04-21T14:15:43;19.80;77.50
55083;DHT22;40978;52.850;6.506;2023-04-21T14:18:09;20.10;76.30
55083;DHT22;40978;52.850;6.506;2023-04-21T14:20:34;20.40;75.00
55083;DHT22;40978;52.850;6.506;2023-04-21T14:23:00;20.70;72.00
55083;DHT22;40978;52.850;6.506;2023-04-21T14:25:26;20.60;70.30
55083;DHT22;40978;52.850;6.506;2023-04-21T14:27:51;20.50;70.20
55083;DHT22;40978;52.850;6.506;2023-04-21T14:30:17;20.50;70.60
55083;DHT22;40978;52.850;6.506;2023-04-21T14:32:43;20.50;69.80
55083;DHT22;40978;52.850;6.506;2023-04-21T14:35:12;20.60;69.40
55083;DHT22;40978;52.850;6.506;2023-04-21T14:37:39;20.60;70.30
55083;DHT22;40978;52.850;6.506;2023-04-21T14:40:08;20.60;68.70
55083;DHT22;40978;52.850;6.506;2023-04-21T14:42:34;20.60;68.80
55083;DHT22;40978;52.850;6.506;2023-04-21T14:45:00;20.50;68.30
55083;DHT22;40978;52.850;6.506;2023-04-21T14:47:26;20.40;65.60
55083;DHT22;40978;52.850;6.506;2023-04-21T14:49:52;20.20;66.20
55083;DHT22;40978;52.850;6.506;2023-04-21T14:52:19;20.10;65.80
55083;DHT22;40978;52.850;6.506;2023-04-21T14:54:45;20.10;66.80
55083;DHT22;40978;52.850;6.506;2023-04-21T14:57:11;20.00;66.30
55083;DHT22;40978;52.850;6.506;2023-04-21T14:59:37;19.90;65.80
55083;DHT22;40978;52.850;6.506;2023-04-21T15:02:03;19.90;67.30
55083;DHT22;40978;52.850;6.506;2023-04-21T15:04:29;19.80;65.60
55083;DHT22;40978;52.850;6.506;2023-04-21T15:06:55;19.80;65.70
55083;DHT22;40978;52.850;6.506;2023-04-21T15:09:20;19.80;65.50
55083;DHT22;40978;52.850;6.506;2023-04-21T15:11:46;19.70;65.50
55083;DHT22;40978;52.850;6.506;2023-04-21T15:14:12;19.70;65.00
55083;DHT22;40978;52.850;6.506;2023-04-21T15:16:38;19.60;65.40
55083;DHT22;40978;52.850;6.506;2023-04-21T15:19:03;19.60;66.00
55083;DHT22;40978;52.850;6.506;2023-04-21T15:21:29;19.60;65.90
55083;DHT22;40978;52.850;6.506;2023-04-21T15:23:56;19.60;64.40
55083;DHT22;40978;52.850;6.506;2023-04-21T15:26:22;19.50;64.90
55083;DHT22;40978;52.850;6.506;2023-04-21T15:28:48;19.50;64.90
55083;DHT22;40978;52.850;6.506;2023-04-21T15:31:14;19.40;65.30
55083;DHT22;40978;52.850;6.506;2023-04-21T15:33:40;19.40;64.70
55083;DHT22;40978;52.850;6.506;2023-04-21T15:36:06;19.40;65.70
55083;DHT22;40978;52.850;6.506;2023-04-21T15:38:32;19.40;63.70
55083;DHT22;40978;52.850;6.506;2023-04-21T15:40:57;19.30;63.80
55083;DHT22;40978;52.850;6.506;2023-04-21T15:43:23;19.30;64.00
55083;DHT22;40978;52.850;6.506;2023-04-21T15:45:49;19.30;64.40
55083;DHT22;40978;52.850;6.506;2023-04-21T15:48:14;19.40;64.60
55083;DHT22;40978;52.850;6.506;2023-04-21T15:50:41;19.40;62.90
55083;DHT22;40978;52.850;6.506;2023-04-21T15:53:09;19.50;63.50